sensor_id;sensor_type;location;lat;lon;timestamp;temperature;humidity
21830;DHT22;11077;50.264;6.798;2023-05-20T00:01:01;9.40;99.90
21830;DHT22;11077;50.264;6.798;2023-05-20T00:03:29;9.40;99.90
21830;DHT22;11077;50.264;6.798;2023-05-20T00:05:57;9.30;99.90
21830;DHT22;11077;50.264;6.798;2023-05-20T00:08:24;9.30;99.90
21830;DHT22;11077;50.264;6.798;2023-05-20T00:10:51;9.30;99.90
21830;DHT22;11077;50.264;6.798;2023-05-20T00:13:18;9.20;99.90
21830;DHT22;11077;50.264;6.798;2023-05-20T00:15:45;9.20;99.90
21830;DHT22;11077;50.264;6.798;2023-05-20T00:18:13;9.10;99.90
21830;DHT22;11077;50.264;6.798;2023-05-20T00:20:40;9.10;99.90
21830;DHT22;11077;50.264;6.798;2023-05-20T00:23:08;9.00;99.90
21830;DHT22;11077;50.264;6.798;2023-05-20T00:25:35;9.00;99.90
21830;DHT22;11077;50.264;6.798;2023-05-20T00:28:03;9.00;99.90
21830;DHT22;11077;50.264;6.798;2023-05-20T00:30:30;9.00;99.90
21830;DHT22;11077;50.264;6.798;2023-05-20T00:32:58;9.00;99.90
21830;DHT22;11077;50.264;6.798;2023-05-20T00:35:25;9.00;99.90
21830;DHT22;11077;50.264;6.798;2023-05-20T00:37:52;8.90;99.90
21830;DHT22;11077;50.264;6.798;2023-05-20T00:40:21;8.90;99.90
21830;DHT22;11077;50.264;6.798;2023-05-20T00:42:49;8.90;99.90
21830;DHT22;11077;50.264;6.798;2023-05-20T00:45:17;8.90;99.90
21830;DHT22;11077;50.264;6.798;2023-05-20T00:47:44;8.90;99.90
21830;DHT22;11077;50.264;6.798;2023-05-20T00:50:11;8.90;99.90
21830;DHT22;11077;50.264;6.798;2023-05-20T00:52:38;8.90;99.90
21830;DHT22;11077;50.264;6.798;2023-05-20T00:55:09;8.90;99.90
21830;DHT22;11077;50.264;6.798;2023-05-20T00:57:38;8.90;99.90
21830;DHT22;11077;50.264;6.798;2023-05-20T01:00:07;8.90;99.90
21830;DHT22;11077;50.264;6.798;2023-05-20T01:02:35;8.90;99.90
21830;DHT22;11077;50.264;6.798;2023-05-20T01:05:02;8.90;99.90
21830;DHT22;11077;50.264;6.798;2023-05-20T01:07:29;8.90;99.90
21830;DHT22;11077;50.264;6.798;2023-05-20T01:09:57;8.90;99.90
21830;DHT22;11077;50.264;6.798;2023-05-20T01:12:26;8.90;99.90
21830;DHT22;11077;50.264;6.798;2023-05-20T01:14:58;8.80;99.90
21830;DHT22;11077;50.264;6.798;2023-05-20T01:17:30;8.80;99.90
21830;DHT22;11077;50.264;6.798;2023-05-20T01:20:00;8.80;99.90
21830;DHT22;11077;50.264;6.798;2023-05-20T01:22:30;8.80;99.90
21830;DHT22;11077;50.264;6.798;2023-05-20T01:24:57;8.70;99.90
21830;DHT22;11077;50.264;6.798;2023-05-20T01:27:25;8.60;99.90
21830;DHT22;11077;50.264;6.798;2023-05-20T01:29:55;8.60;99.90
21830;DHT22;11077;50.264;6.798;2023-05-20T01:32:25;8.50;99.90
21830;DHT22;11077;50.264;6.798;2023-05-20T01:34:54;8.50;99.90
21830;DHT22;11077;50.264;6.798;2023-05-20T01:37:23;8.50;99.90
21830;DHT22;11077;50.264;6.798;2023-05-20T01:39:53;8.40;99.90
21830;DHT22;11077;50.264;6.798;2023-05-20T01:42:21;8.40;99.90
21830;DHT22;11077;50.264;6.798;2023-05-20T01:44:49;8.30;99.90
21830;DHT22;11077;50.264;6.798;2023-05-20T01:47:17;8.30;99.90
21830;DHT22;11077;50.264;6.798;2023-05-20T01:49:44;8.30;99.90
21830;DHT22;11077;50.264;6.798;2023-05-20T01:52:12;8.30;99.90
21830;DHT22;11077;50.264;6.798;2023-05-20T01:54:40;8.30;99.90
21830;DHT22;11077;50.264;6.798;2023-05-20T01:57:08;8.30;99.90
21830;DHT22;11077;50.264;6.798;2023-05-20T01:59:36;8.30;99.90
21830;DHT22;11077;50.264;6.798;2023-05-20T02:02:04;8.20;99.90
21830;DHT22;11077;50.264;6.798;2023-05-20T02:04:31;8.20;99.90
21830;DHT22;11077;50.264;6.798;2023-05-20T02:06:58;8.20;99.90
21830;DHT22;11077;50.264;6.798;2023-05-20T02:09:27;8.20;99.90
21830;DHT22;11077;50.264;6.798;2023-05-20T02:11:54;8.20;99.90
21830;DHT22;11077;50.264;6.798;2023-05-20T02:14:23;8.10;99.90
21830;DHT22;11077;50.264;6.798;2023-05-20T02:16:50;8.00;99.90
21830;DHT22;11077;50.264;6.798;2023-05-20T02:19:18;8.00;99.90
21830;DHT22;11077;50.264;6.798;2023-05-20T02:21:48;8.00;99.90
21830;DHT22;11077;50.264;6.798;2023-05-20T02:24:16;8.00;99.90
21830;DHT22;11077;50.264;6.798;2023-05-20T02:26:45;8.00;99.90
21830;DHT22;11077;50.264;6.798;2023-05-20T02:29:14;7.90;99.90
21830;DHT22;11077;50.264;6.798;2023-05-20T02:31:43;7.90;99.90
21830;DHT22;11077;50.264;6.798;2023-05-20T02:34:10;7.90;99.90
21830;DHT22;11077;50.264;6.798;2023-05-20T02:36:38;7.80;99.90
21830;DHT22;11077;50.264;6.798;2023-05-20T02:39:05;7.90;99.90
21830;DHT22;11077;50.264;6.798;2023-05-20T02:41:32;7.90;99.90
21830;DHT22;11077;50.264;6.798;2023-05-20T02:43:59;7.90;99.90
21830;DHT22;11077;50.264;6.798;2023-05-20T02:46:27;7.90;99.90
21830;DHT22;11077;50.264;6.798;2023-05-20T02:48:56;7.90;99.90
21830;DHT22;11077;50.264;6.798;2023-05-20T02:51:24;7.80;99.90
21830;DHT22;11077;50.264;6.798;2023-05-20T02:53:52;7.80;99.90
21830;DHT22;11077;50.264;6.798;2023-05-20T02:56:19;7.80;99.90
21830;DHT22;11077;50.264;6.798;2023-05-20T02:58:47;7.80;99.90
21830;DHT22;11077;50.264;6.798;2023-05-20T03:01:14;7.80;99.90
21830;DHT22;11077;50.264;6.798;2023-05-20T03:03:41;7.80;99.90
21830;DHT22;11077;50.264;6.798;2023-05-20T03:06:10;7.80;99.90
21830;DHT22;11077;50.264;6.798;2023-05-20T03:08:38;7.90;99.90
21830;DHT22;11077;50.264;6.798;2023-05-20T03:11:08;7.80;99.90
21830;DHT22;11077;50.264;6.798;2023-05-20T03:13:35;7.70;99.90
21830;DHT22;11077;50.264;6.798;2023-05-20T03:16:03;7.70;99.90
21830;DHT22;11077;50.264;6.798;2023-05-20T03:18:31;7.70;99.90
21830;DHT22;11077;50.264;6.798;2023-05-20T03:20:58;7.60;99.90
21830;DHT22;11077;50.264;6.798;2023-05-20T03:23:27;7.60;99.90
21830;DHT22;11077;50.264;6.798;2023-05-20T03:25:55;7.60;99.90
21830;DHT22;11077;50.264;6.798;2023-05-20T03:28:22;7.60;99.90
21830;DHT22;11077;50.264;6.798;2023-05-20T03:30:49;7.60;99.90
21830;DHT22;11077;50.264;6.798;2023-05-20T03:33:16;7.50;99.90
21830;DHT22;11077;50.264;6.798;2023-05-20T03:35:44;7.50;99.90
21830;DHT22;11077;50.264;6.798;2023-05-20T03:38:15;7.40;99.90
21830;DHT22;11077;50.264;6.798;2023-05-20T03:40:44;7.30;99.90
21830;DHT22;11077;50.264;6.798;2023-05-20T03:43:11;7.30;99.90
21830;DHT22;11077;50.264;6.798;2023-05-20T03:45:40;7.30;99.90
21830;DHT22;11077;50.264;6.798;2023-05-20T03:48:07;7.30;99.90
21830;DHT22;11077;50.264;6.798;2023-05-20T03:50:35;7.20;99.90
21830;DHT22;11077;50.264;6.798;2023-05-20T03:53:09;7.20;99.90
21830;DHT22;11077;50.264;6.798;2023-05-20T03:55:41;7.20;99.90
21830;DHT22;11077;50.264;6.798;2023-05-20T03:58:11;7.20;99.90
21830;DHT22;11077;50.264;6.798;2023-05-20T04:00:41;7.10;99.90
21830;DHT22;11077;50.264;6.798;2023-05-20T04:03:08;7.10;99.90
21830;DHT22;11077;50.264;6.798;2023-05-20T04:05:36;7.10;99.90
21830;DHT22;11077;50.264;6.798;2023-05-20T04:08:10;7.10;99.90
21830;DHT22;11077;50.264;6.798;2023-05-20T04:10:40;7.10;99.90
21830;DHT22;11077;50.264;6.798;2023-05-20T04:13:12;7.10;99.90
21830;DHT22;11077;50.264;6.798;2023-05-20T04:15:40;7.10;99.90
21830;DHT22;11077;50.264;6.798;2023-05-20T04:18:09;7.20;99.90
21830;DHT22;11077;50.264;6.798;2023-05-20T04:20:36;7.20;99.90
21830;DHT22;11077;50.264;6.798;2023-05-20T04:23:07;7.10;99.90
21830;DHT22;11077;50.264;6.798;2023-05-20T04:25:34;7.10;99.90
21830;DHT22;11077;50.264;6.798;2023-05-20T04:28:01;7.20;99.90
21830;DHT22;11077;50.264;6.798;2023-05-20T04:30:30;7.20;99.90
21830;DHT22;11077;50.264;6.798;2023-05-20T04:32:58;7.30;99.90
21830;DHT22;11077;50.264;6.798;2023-05-20T04:35:28;7.30;99.90
21830;DHT22;11077;50.264;6.798;2023-05-20T04:38:00;7.40;99.90
21830;DHT22;11077;50.264;6.798;2023-05-20T04:40:27;7.40;99.90
21830;DHT22;11077;50.264;6.798;2023-05-20T04:42:55;7.50;99.90
21830;DHT22;11077;50.264;6.798;2023-05-20T04:45:24;7.50;99.90
21830;DHT22;11077;50.264;6.798;2023-05-20T04:47:53;7.60;99.90
21830;DHT22;11077;50.264;6.798;2023-05-20T04:50:20;7.60;99.90
21830;DHT22;11077;50.264;6.798;2023-05-20T04:52:47;7.70;99.90
21830;DHT22;11077;50.264;6.798;2023-05-20T04:55:15;7.80;99.90
21830;DHT22;11077;50.264;6.798;2023-05-20T04:57:43;7.90;99.90
21830;DHT22;11077;50.264;6.798;2023-05-20T05:00:11;8.00;99.90
21830;DHT22;11077;50.264;6.798;2023-05-20T05:02:39;8.00;99.90
21830;DHT22;11077;50.264;6.798;2023-05-20T05:05:08;8.10;99.90
21830;DHT22;11077;50.264;6.798;2023-05-20T05:07:37;8.20;99.90
21830;DHT22;11077;50.264;6.798;2023-05-20T05:10:05;8.30;99.90
21830;DHT22;11077;50.264;6.798;2023-05-20T05:12:33;8.40;99.90
21830;DHT22;11077;50.264;6.798;2023-05-20T05:15:04;8.50;99.90
21830;DHT22;11077;50.264;6.798;2023-05-20T05:23:20;8.60;99.90
21830;DHT22;11077;50.264;6.798;2023-05-20T05:25:50;8.70;99.90
21830;DHT22;11077;50.264;6.798;2023-05-20T05:28:18;8.70;99.90
21830;DHT22;11077;50.264;6.798;2023-05-20T05:30:46;8.80;99.90
21830;DHT22;11077;50.264;6.798;2023-05-20T05:33:13;8.90;99.90
21830;DHT22;11077;50.264;6.798;2023-05-20T05:35:42;8.90;99.90
21830;DHT22;11077;50.264;6.798;2023-05-20T05:38:10;9.00;99.90
21830;DHT22;11077;50.264;6.798;2023-05-20T05:40:37;9.00;99.90
21830;DHT22;11077;50.264;6.798;2023-05-20T05:43:05;9.00;99.90
21830;DHT22;11077;50.264;6.798;2023-05-20T05:45:33;9.10;99.90
21830;DHT22;11077;50.264;6.798;2023-05-20T05:48:00;9.10;99.90
21830;DHT22;11077;50.264;6.798;2023-05-20T05:50:27;9.10;99.90
21830;DHT22;11077;50.264;6.798;2023-05-20T05:52:56;9.10;99.90
21830;DHT22;11077;50.264;6.798;2023-05-20T05:55:24;9.10;99.90
21830;DHT22;11077;50.264;6.798;2023-05-20T05:57:53;9.10;99.90
21830;DHT22;11077;50.264;6.798;2023-05-20T06:00:21;9.10;99.90
21830;DHT22;11077;50.264;6.798;2023-05-20T06:02:48;9.20;99.90
21830;DHT22;11077;50.264;6.798;2023-05-20T06:05:31;9.20;99.90
21830;DHT22;11077;50.264;6.798;2023-05-20T06:08:00;9.20;99.90
21830;DHT22;11077;50.264;6.798;2023-05-20T06:10:27;9.40;99.90
21830;DHT22;11077;50.264;6.798;2023-05-20T06:12:55;9.50;99.90
21830;DHT22;11077;50.264;6.798;2023-05-20T06:15:22;9.60;99.90
21830;DHT22;11077;50.264;6.798;2023-05-20T06:17:50;9.70;99.90
21830;DHT22;11077;50.264;6.798;2023-05-20T06:20:18;9.70;99.90
21830;DHT22;11077;50.264;6.798;2023-05-20T06:22:45;9.80;99.90
21830;DHT22;11077;50.264;6.798;2023-05-20T06:25:14;9.80;99.90
21830;DHT22;11077;50.264;6.798;2023-05-20T06:27:41;9.90;99.90
21830;DHT22;11077;50.264;6.798;2023-05-20T06:30:14;10.10;99.90
21830;DHT22;11077;50.264;6.798;2023-05-20T06:32:41;10.20;99.90
21830;DHT22;11077;50.264;6.798;2023-05-20T06:35:09;10.40;99.90
21830;DHT22;11077;50.264;6.798;2023-05-20T06:37:37;10.50;99.90
21830;DHT22;11077;50.264;6.798;2023-05-20T06:40:07;10.70;99.90
21830;DHT22;11077;50.264;6.798;2023-05-20T06:42:37;10.80;99.90
21830;DHT22;11077;50.264;6.798;2023-05-20T06:45:06;10.90;99.90
21830;DHT22;11077;50.264;6.798;2023-05-20T06:47:41;11.00;99.90
21830;DHT22;11077;50.264;6.798;2023-05-20T06:50:09;11.10;99.90
21830;DHT22;11077;50.264;6.798;2023-05-20T06:52:36;11.10;99.90
21830;DHT22;11077;50.264;6.798;2023-05-20T06:55:04;11.20;99.90
21830;DHT22;11077;50.264;6.798;2023-05-20T06:57:33;11.20;99.90
21830;DHT22;11077;50.264;6.798;2023-05-20T07:00:04;11.40;99.90
21830;DHT22;11077;50.264;6.798;2023-05-20T07:02:38;11.50;99.90
21830;DHT22;11077;50.264;6.798;2023-05-20T07:05:06;11.50;99.90
21830;DHT22;11077;50.264;6.798;2023-05-20T07:07:33;11.50;99.90
21830;DHT22;11077;50.264;6.798;2023-05-20T07:10:00;11.60;99.90
21830;DHT22;11077;50.264;6.798;2023-05-20T07:12:31;11.70;99.90
21830;DHT22;11077;50.264;6.798;2023-05-20T07:14:59;11.80;99.90
21830;DHT22;11077;50.264;6.798;2023-05-20T07:17:28;11.90;99.90
21830;DHT22;11077;50.264;6.798;2023-05-20T07:19:58;12.00;99.90
21830;DHT22;11077;50.264;6.798;2023-05-20T07:22:25;12.20;99.90
21830;DHT22;11077;50.264;6.798;2023-05-20T07:25:07;12.30;99.90
21830;DHT22;11077;50.264;6.798;2023-05-20T07:27:36;12.50;99.90
21830;DHT22;11077;50.264;6.798;2023-05-20T07:30:04;12.60;99.90
21830;DHT22;11077;50.264;6.798;2023-05-20T07:32:34;12.70;99.90
21830;DHT22;11077;50.264;6.798;2023-05-20T07:35:01;12.80;99.90
21830;DHT22;11077;50.264;6.798;2023-05-20T07:37:28;13.00;99.90
21830;DHT22;11077;50.264;6.798;2023-05-20T07:39:56;13.20;99.90
21830;DHT22;11077;50.264;6.798;2023-05-20T07:42:23;13.30;99.90
21830;DHT22;11077;50.264;6.798;2023-05-20T07:44:55;13.40;99.90
21830;DHT22;11077;50.264;6.798;2023-05-20T07:47:22;13.50;99.90
21830;DHT22;11077;50.264;6.798;2023-05-20T07:49:51;13.50;99.90
21830;DHT22;11077;50.264;6.798;2023-05-20T07:52:19;13.70;99.90
21830;DHT22;11077;50.264;6.798;2023-05-20T07:54:46;13.90;99.90
21830;DHT22;11077;50.264;6.798;2023-05-20T07:57:14;14.00;99.90
21830;DHT22;11077;50.264;6.798;2023-05-20T07:59:42;14.20;99.90
21830;DHT22;11077;50.264;6.798;2023-05-20T08:02:09;14.30;99.90
21830;DHT22;11077;50.264;6.798;2023-05-20T08:04:37;14.40;99.90
21830;DHT22;11077;50.264;6.798;2023-05-20T08:07:06;14.40;99.90
21830;DHT22;11077;50.264;6.798;2023-05-20T08:09:41;14.40;99.90
21830;DHT22;11077;50.264;6.798;2023-05-20T08:12:08;14.40;99.90
21830;DHT22;11077;50.264;6.798;2023-05-20T08:14:36;14.40;99.90
21830;DHT22;11077;50.264;6.798;2023-05-20T08:17:04;14.50;99.90
21830;DHT22;11077;50.264;6.798;2023-05-20T08:19:32;14.70;99.90
21830;DHT22;11077;50.264;6.798;2023-05-20T08:21:59;14.90;99.90
21830;DHT22;11077;50.264;6.798;2023-05-20T08:24:29;15.20;99.90
21830;DHT22;11077;50.264;6.798;2023-05-20T08:26:56;15.40;99.90
21830;DHT22;11077;50.264;6.798;2023-05-20T08:29:25;15.50;99.90
21830;DHT22;11077;50.264;6.798;2023-05-20T08:31:53;15.60;99.90
21830;DHT22;11077;50.264;6.798;2023-05-20T08:34:20;15.70;99.90
21830;DHT22;11077;50.264;6.798;2023-05-20T08:36:47;15.70;99.90
21830;DHT22;11077;50.264;6.798;2023-05-20T08:39:16;15.90;99.90
21830;DHT22;11077;50.264;6.798;2023-05-20T08:41:46;16.10;99.90
21830;DHT22;11077;50.264;6.798;2023-05-20T08:44:14;16.30;99.90
21830;DHT22;11077;50.264;6.798;2023-05-20T08:46:43;16.50;99.90
21830;DHT22;11077;50.264;6.798;2023-05-20T08:49:11;16.70;99.90
21830;DHT22;11077;50.264;6.798;2023-05-20T08:51:40;16.90;99.90
21830;DHT22;11077;50.264;6.798;2023-05-20T08:54:10;17.00;99.90
21830;DHT22;11077;50.264;6.798;2023-05-20T08:56:47;17.10;99.90
21830;DHT22;11077;50.264;6.798;2023-05-20T08:59:14;17.10;99.90
21830;DHT22;11077;50.264;6.798;2023-05-20T09:01:43;17.10;99.90
21830;DHT22;11077;50.264;6.798;2023-05-20T09:04:12;17.00;99.90
21830;DHT22;11077;50.264;6.798;2023-05-20T09:06:45;17.30;99.90
21830;DHT22;11077;50.264;6.798;2023-05-20T09:09:13;17.30;99.90
21830;DHT22;11077;50.264;6.798;2023-05-20T09:11:42;17.40;99.90
21830;DHT22;11077;50.264;6.798;2023-05-20T09:14:11;17.50;99.90
21830;DHT22;11077;50.264;6.798;2023-05-20T09:16:39;17.60;99.90
21830;DHT22;11077;50.264;6.798;2023-05-20T09:19:07;17.70;99.90
21830;DHT22;11077;50.264;6.798;2023-05-20T09:21:36;17.90;99.90
21830;DHT22;11077;50.264;6.798;2023-05-20T09:24:05;18.10;99.90
21830;DHT22;11077;50.264;6.798;2023-05-20T09:26:33;18.10;99.90
21830;DHT22;11077;50.264;6.798;2023-05-20T09:29:02;18.30;99.90
21830;DHT22;11077;50.264;6.798;2023-05-20T09:31:31;18.30;99.90
21830;DHT22;11077;50.264;6.798;2023-05-20T09:34:00;18.30;99.90
21830;DHT22;11077;50.264;6.798;2023-05-20T09:36:28;18.20;99.90
21830;DHT22;11077;50.264;6.798;2023-05-20T09:39:00;18.10;99.90
21830;DHT22;11077;50.264;6.798;2023-05-20T09:41:33;18.00;99.90
21830;DHT22;11077;50.264;6.798;2023-05-20T09:44:04;18.00;99.90
21830;DHT22;11077;50.264;6.798;2023-05-20T09:46:33;18.10;99.90
21830;DHT22;11077;50.264;6.798;2023-05-20T09:49:04;18.30;99.90
21830;DHT22;11077;50.264;6.798;2023-05-20T09:51:32;18.40;99.90
21830;DHT22;11077;50.264;6.798;2023-05-20T09:54:02;18.40;99.90
21830;DHT22;11077;50.264;6.798;2023-05-20T09:56:30;18.60;99.90
21830;DHT22;11077;50.264;6.798;2023-05-20T09:58:58;18.60;99.90
21830;DHT22;11077;50.264;6.798;2023-05-20T10:01:26;18.80;99.90
21830;DHT22;11077;50.264;6.798;2023-05-20T10:03:55;19.00;99.90
21830;DHT22;11077;50.264;6.798;2023-05-20T10:06:35;19.20;99.90
21830;DHT22;11077;50.264;6.798;2023-05-20T10:09:17;19.30;99.90
21830;DHT22;11077;50.264;6.798;2023-05-20T10:11:53;19.40;99.90
21830;DHT22;11077;50.264;6.798;2023-05-20T10:14:32;19.50;99.90
21830;DHT22;11077;50.264;6.798;2023-05-20T10:17:08;19.70;99.90
21830;DHT22;11077;50.264;6.798;2023-05-20T10:19:38;19.90;99.90
21830;DHT22;11077;50.264;6.798;2023-05-20T10:22:06;20.00;99.90
21830;DHT22;11077;50.264;6.798;2023-05-20T10:24:36;20.10;99.90
21830;DHT22;11077;50.264;6.798;2023-05-20T10:27:07;20.00;99.90
21830;DHT22;11077;50.264;6.798;2023-05-20T10:29:42;20.10;99.90
21830;DHT22;11077;50.264;6.798;2023-05-20T10:32:10;20.30;99.90
21830;DHT22;11077;50.264;6.798;2023-05-20T10:34:46;20.40;99.90
21830;DHT22;11077;50.264;6.798;2023-05-20T10:37:23;20.60;99.90
21830;DHT22;11077;50.264;6.798;2023-05-20T10:40:01;20.70;99.90
21830;DHT22;11077;50.264;6.798;2023-05-20T10:42:30;20.90;99.90
21830;DHT22;11077;50.264;6.798;2023-05-20T10:44:57;20.90;99.90
21830;DHT22;11077;50.264;6.798;2023-05-20T10:47:24;20.90;99.90
21830;DHT22;11077;50.264;6.798;2023-05-20T10:49:53;21.00;99.90
21830;DHT22;11077;50.264;6.798;2023-05-20T10:52:20;21.20;99.90
21830;DHT22;11077;50.264;6.798;2023-05-20T10:54:55;21.20;99.90
21830;DHT22;11077;50.264;6.798;2023-05-20T10:57:24;21.10;99.90
21830;DHT22;11077;50.264;6.798;2023-05-20T10:59:52;21.20;99.90
21830;DHT22;11077;50.264;6.798;2023-05-20T11:02:20;21.20;99.90
21830;DHT22;11077;50.264;6.798;2023-05-20T11:04:55;21.30;99.90
21830;DHT22;11077;50.264;6.798;2023-05-20T11:07:25;20.80;99.90
21830;DHT22;11077;50.264;6.798;2023-05-20T11:09:53;21.00;99.90
21830;DHT22;11077;50.264;6.798;2023-05-20T11:12:20;20.90;99.90
21830;DHT22;11077;50.264;6.798;2023-05-20T11:14:49;20.70;99.90
21830;DHT22;11077;50.264;6.798;2023-05-20T11:17:16;20.80;99.90
21830;DHT22;11077;50.264;6.798;2023-05-20T11:19:45;20.90;99.90
21830;DHT22;11077;50.264;6.798;2023-05-20T11:22:14;21.20;99.90
21830;DHT22;11077;50.264;6.798;2023-05-20T11:24:41;20.90;99.90
21830;DHT22;11077;50.264;6.798;2023-05-20T11:27:08;20.60;99.90
21830;DHT22;11077;50.264;6.798;2023-05-20T11:29:36;20.70;99.90
21830;DHT22;11077;50.264;6.798;2023-05-20T11:32:04;20.60;99.90
21830;DHT22;11077;50.264;6.798;2023-05-20T11:34:35;20.70;99.90
21830;DHT22;11077;50.264;6.798;2023-05-20T11:37:06;20.80;99.90
21830;DHT22;11077;50.264;6.798;2023-05-20T11:39:35;21.00;99.90
21830;DHT22;11077;50.264;6.798;2023-05-20T11:42:02;21.20;99.90
21830;DHT22;11077;50.264;6.798;2023-05-20T11:44:30;21.40;99.90
21830;DHT22;11077;50.264;6.798;2023-05-20T11:46:59;21.70;99.90
21830;DHT22;11077;50.264;6.798;2023-05-20T11:49:27;21.90;99.90
21830;DHT22;11077;50.264;6.798;2023-05-20T11:51:56;21.80;99.90
21830;DHT22;11077;50.264;6.798;2023-05-20T11:54:23;21.60;99.90
21830;DHT22;11077;50.264;6.798;2023-05-20T11:56:53;21.50;99.90
21830;DHT22;11077;50.264;6.798;2023-05-20T11:59:24;21.40;99.90
21830;DHT22;11077;50.264;6.798;2023-05-20T12:01:52;21.20;99.90
21830;DHT22;11077;50.264;6.798;2023-05-20T12:04:19;21.20;99.90
21830;DHT22;11077;50.264;6.798;2023-05-20T12:06:46;21.20;99.90
21830;DHT22;11077;50.264;6.798;2023-05-20T12:09:13;21.20;99.90
21830;DHT22;11077;50.264;6.798;2023-05-20T12:11:42;21.10;99.90
21830;DHT22;11077;50.264;6.798;2023-05-20T12:14:11;20.90;99.90
21830;DHT22;11077;50.264;6.798;2023-05-20T12:16:38;20.70;99.90
21830;DHT22;11077;50.264;6.798;2023-05-20T12:19:05;20.60;99.90
21830;DHT22;11077;50.264;6.798;2023-05-20T12:21:34;20.50;99.90
21830;DHT22;11077;50.264;6.798;2023-05-20T12:24:01;20.40;99.90
21830;DHT22;11077;50.264;6.798;2023-05-20T12:26:31;20.20;99.90
21830;DHT22;11077;50.264;6.798;2023-05-20T12:29:00;19.90;99.90
21830;DHT22;11077;50.264;6.798;2023-05-20T12:31:28;19.90;99.90
21830;DHT22;11077;50.264;6.798;2023-05-20T12:33:56;19.80;99.90
21830;DHT22;11077;50.264;6.798;2023-05-20T12:36:24;19.60;99.90
21830;DHT22;11077;50.264;6.798;2023-05-20T12:38:52;19.60;99.90
21830;DHT22;11077;50.264;6.798;2023-05-20T12:41:21;19.60;99.90
21830;DHT22;11077;50.264;6.798;2023-05-20T12:43:48;19.70;99.90
21830;DHT22;11077;50.264;6.798;2023-05-20T12:46:17;19.80;99.90
21830;DHT22;11077;50.264;6.798;2023-05-20T12:48:47;19.80;99.90
21830;DHT22;11077;50.264;6.798;2023-05-20T12:51:14;19.80;99.90
21830;DHT22;11077;50.264;6.798;2023-05-20T12:53:41;19.90;99.90
21830;DHT22;11077;50.264;6.798;2023-05-20T12:56:08;19.90;99.90
21830;DHT22;11077;50.264;6.798;2023-05-20T12:58:36;20.00;99.90
21830;DHT22;11077;50.264;6.798;2023-05-20T13:01:03;19.90;99.90
21830;DHT22;11077;50.264;6.798;2023-05-20T13:03:30;19.80;99.90
21830;DHT22;11077;50.264;6.798;2023-05-20T13:05:59;19.80;99.90
21830;DHT22;11077;50.264;6.798;2023-05-20T13:08:26;19.70;99.90
21830;DHT22;11077;50.264;6.798;2023-05-20T13:10:53;19.60;99.90
21830;DHT22;11077;50.264;6.798;2023-05-20T13:13:21;19.50;99.90
21830;DHT22;11077;50.264;6.798;2023-05-20T13:15:48;19.50;99.90
21830;DHT22;11077;50.264;6.798;2023-05-20T13:18:15;19.40;99.90
21830;DHT22;11077;50.264;6.798;2023-05-20T13:20:42;19.30;99.90
21830;DHT22;11077;50.264;6.798;2023-05-20T13:23:11;19.30;99.90
21830;DHT22;11077;50.264;6.798;2023-05-20T13:25:38;19.00;99.90
21830;DHT22;11077;50.264;6.798;2023-05-20T13:28:05;19.10;99.90
21830;DHT22;11077;50.264;6.798;2023-05-20T13:30:33;19.20;99.90
21830;DHT22;11077;50.264;6.798;2023-05-20T13:33:00;19.20;99.90
21830;DHT22;11077;50.264;6.798;2023-05-20T13:35:28;19.20;99.90
21830;DHT22;11077;50.264;6.798;2023-05-20T13:37:55;19.20;99.90
21830;DHT22;11077;50.264;6.798;2023-05-20T13:40:24;19.30;99.90
21830;DHT22;11077;50.264;6.798;2023-05-20T13:42:51;19.20;99.90
21830;DHT22;11077;50.264;6.798;2023-05-20T13:45:19;19.30;99.90
21830;DHT22;11077;50.264;6.798;2023-05-20T13:47:47;19.30;99.90
21830;DHT22;11077;50.264;6.798;2023-05-20T13:50:15;19.30;99.90
21830;DHT22;11077;50.264;6.798;2023-05-20T13:52:42;19.30;99.90
21830;DHT22;11077;50.264;6.798;2023-05-20T13:55:09;19.20;99.90
21830;DHT22;11077;50.264;6.798;2023-05-20T13:57:38;19.30;99.90
21830;DHT22;11077;50.264;6.798;2023-05-20T14:00:06;19.20;99.90
21830;DHT22;11077;50.264;6.798;2023-05-20T14:02:34;19.10;99.90
21830;DHT22;11077;50.264;6.798;2023-05-20T14:05:02;19.00;99.90
21830;DHT22;11077;50.264;6.798;2023-05-20T14:07:29;19.20;99.90
21830;DHT22;11077;50.264;6.798;2023-05-20T14:09:56;19.10;99.90
21830;DHT22;11077;50.264;6.798;2023-05-20T14:12:24;19.20;99.90
21830;DHT22;11077;50.264;6.798;2023-05-20T14:14:53;19.20;99.90
21830;DHT22;11077;50.264;6.798;2023-05-20T14:17:20;19.20;99.90
21830;DHT22;11077;50.264;6.798;2023-05-20T14:19:47;19.30;99.90
21830;DHT22;11077;50.264;6.798;2023-05-20T14:22:14;19.30;99.90
21830;DHT22;11077;50.264;6.798;2023-05-20T14:24:41;19.30;99.90
21830;DHT22;11077;50.264;6.798;2023-05-20T14:27:09;19.40;99.90
21830;DHT22;11077;50.264;6.798;2023-05-20T14:29:38;19.40;99.90
21830;DHT22;11077;50.264;6.798;2023-05-20T14:32:07;19.40;99.90
21830;DHT22;11077;50.264;6.798;2023-05-20T14:34:36;19.40;99.90
21830;DHT22;11077;50.264;6.798;2023-05-20T14:37:03;19.40;99.90
21830;DHT22;11077;50.264;6.798;2023-05-20T14:39:34;19.40;99.90
21830;DHT22;11077;50.264;6.798;2023-05-20T14:42:02;19.30;99.90
21830;DHT22;11077;50.264;6.798;2023-05-20T14:44:29;19.20;99.90
21830;DHT22;11077;50.264;6.798;2023-05-20T14:46:58;19.30;99.90
21830;DHT22;11077;50.264;6.798;2023-05-20T14:49:26;19.30;99.90
21830;DHT22;11077;50.264;6.798;2023-05-20T14:51:54;19.30;99.90
21830;DHT22;11077;50.264;6.798;2023-05-20T14:54:21;19.20;99.90
21830;DHT22;11077;50.264;6.798;2023-05-20T14:56:49;19.10;99.90
21830;DHT22;11077;50.264;6.798;2023-05-20T14:59:17;19.10;99.90
21830;DHT22;11077;50.264;6.798;2023-05-20T15:01:44;19.10;99.90
21830;DHT22;11077;50.264;6.798;2023-05-20T15:04:11;19.20;99.90
21830;DHT22;11077;50.264;6.798;2023-05-20T15:06:40;19.20;99.90
21830;DHT22;11077;50.264;6.798;2023-05-20T15:09:07;19.40;99.90
21830;DHT22;11077;50.264;6.798;2023-05-20T15:11:35;19.50;99.90
21830;DHT22;11077;50.264;6.798;2023-05-20T15:14:02;19.50;99.90
21830;DHT22;11077;50.264;6.798;2023-05-20T15:16:29;19.50;99.90
21830;DHT22;11077;50.264;6.798;2023-05-20T15:18:56;19.50;99.90
21830;DHT22;11077;50.264;6.798;2023-05-20T15:21:24;19.30;99.90
21830;DHT22;11077;50.264;6.798;2023-05-20T15:23:52;19.30;99.90
21830;DHT22;11077;50.264;6.798;2023-05-20T15:26:20;19.20;99.90
21830;DHT22;11077;50.264;6.798;2023-05-20T15:28:47;19.00;99.90
21830;DHT22;11077;50.264;6.798;2023-05-20T15:31:15;19.00;99.90
21830;DHT22;11077;50.264;6.798;2023-05-20T15:33:42;18.70;99.90
21830;DHT22;11077;50.264;6.798;2023-05-20T15:36:10;18.60;99.90
21830;DHT22;11077;50.264;6.798;2023-05-20T15:38:37;18.50;99.90
21830;DHT22;11077;50.264;6.798;2023-05-20T15:41:05;18.50;99.90
21830;DHT22;11077;50.264;6.798;2023-05-20T15:43:34;18.50;99.90
21830;DHT22;11077;50.264;6.798;2023-05-20T15:46:03;18.50;99.90
21830;DHT22;11077;50.264;6.798;2023-05-20T15:48:30;18.50;99.90
21830;DHT22;11077;50.264;6.798;2023-05-20T15:50:59;18.50;99.90